RYR4769 LOWW-LIPE
Flight info
| Callsign | RYR4769 |
|---|---|
| Flight time | N/A |
| Altitude | 30000 |
| Route | RUPET DCT GRZ DCT RADLY/N0439F340 DCT PENEP/N0435F330 DCT ROSKA DCT BASOG DCT ARVOD P125 BAMEK |
| Aircraft | B738/M-SDE2E3FGHIRWXY/LB1 |
Departure
| Time | 2026-04-26 14:02 |
|---|---|
| Airport | Vienna International Airport (LOWW) |
Arrival
| Time | N/A |
|---|---|
| Airport | Bologna Guglielmo Marconi Airport (LIPE) |
| Time | Latitude | Longitude | Altitude | Speed | Heading |
|---|---|---|---|---|---|
| 2026-04-26 13:30 | 48.12045 | 16.55455 | 583 ft | 0 kts | 296° |
| 2026-04-26 13:55 | 48.12051 | 16.55438 | 582 ft | 3 kts | 296° |
| 2026-04-26 13:56 | 48.12052 | 16.55392 | 582 ft | 7 kts | 242° |
| 2026-04-26 13:56 | 48.11990 | 16.55334 | 583 ft | 10 kts | 206° |
| 2026-04-26 13:56 | 48.11933 | 16.55319 | 583 ft | 8 kts | 146° |
| 2026-04-26 13:56 | 48.11899 | 16.55401 | 583 ft | 9 kts | 124° |
| 2026-04-26 13:57 | 48.11842 | 16.55427 | 583 ft | 9 kts | 186° |
| 2026-04-26 13:57 | 48.11789 | 16.55495 | 582 ft | 12 kts | 116° |
| 2026-04-26 13:57 | 48.11747 | 16.55623 | 583 ft | 15 kts | 116° |
| 2026-04-26 13:57 | 48.11697 | 16.55778 | 583 ft | 17 kts | 116° |
| 2026-04-26 13:58 | 48.11643 | 16.55943 | 585 ft | 17 kts | 116° |
| 2026-04-26 13:58 | 48.11589 | 16.56111 | 589 ft | 17 kts | 116° |
| 2026-04-26 13:58 | 48.11533 | 16.56281 | 592 ft | 18 kts | 116° |
| 2026-04-26 13:58 | 48.11480 | 16.56443 | 597 ft | 16 kts | 116° |
| 2026-04-26 13:59 | 48.11430 | 16.56600 | 600 ft | 17 kts | 116° |
| 2026-04-26 13:59 | 48.11379 | 16.56755 | 602 ft | 16 kts | 117° |
| 2026-04-26 13:59 | 48.11326 | 16.56913 | 604 ft | 17 kts | 116° |
| 2026-04-26 14:00 | 48.11174 | 16.57230 | 603 ft | 11 kts | 199° |
| 2026-04-26 14:00 | 48.11106 | 16.57183 | 603 ft | 9 kts | 206° |
| 2026-04-26 14:00 | 48.11069 | 16.57157 | 603 ft | 7 kts | 205° |
| 2026-04-26 14:01 | 48.11053 | 16.57108 | 603 ft | 3 kts | 293° |
| 2026-04-26 14:01 | 48.11064 | 16.57074 | 604 ft | 13 kts | 296° |
| 2026-04-26 14:01 | 48.11239 | 16.56541 | 597 ft | 99 kts | 296° |
| 2026-04-26 14:01 | 48.11652 | 16.55272 | 607 ft | 166 kts | 298° |
| 2026-04-26 14:02 | 48.12162 | 16.53647 | 1330 ft | 178 kts | 292° |
| 2026-04-26 14:02 | 48.12105 | 16.51874 | 2304 ft | 178 kts | 247° |
| 2026-04-26 14:02 | 48.11191 | 16.50589 | 2847 ft | 193 kts | 211° |
| 2026-04-26 14:02 | 48.09940 | 16.49544 | 3060 ft | 221 kts | 216° |
| 2026-04-26 14:03 | 48.08641 | 16.48192 | 3596 ft | 236 kts | 217° |
| 2026-04-26 14:03 | 48.07240 | 16.46644 | 4145 ft | 256 kts | 223° |
| 2026-04-26 14:03 | 48.05896 | 16.44889 | 4993 ft | 263 kts | 224° |
| 2026-04-26 14:03 | 48.04505 | 16.43047 | 5709 ft | 275 kts | 224° |
| 2026-04-26 14:04 | 48.03081 | 16.41182 | 6782 ft | 272 kts | 224° |
| 2026-04-26 14:04 | 48.01673 | 16.39349 | 7675 ft | 276 kts | 224° |
| 2026-04-26 14:04 | 48.00697 | 16.38070 | 8205 ft | 280 kts | 224° |
| 2026-04-26 14:04 | 47.98709 | 16.35558 | 9394 ft | 284 kts | 221° |
| 2026-04-26 14:05 | 47.97159 | 16.33716 | 10207 ft | 288 kts | 220° |
| 2026-04-26 14:05 | 47.95575 | 16.31812 | 10816 ft | 301 kts | 220° |
| 2026-04-26 14:05 | 47.93881 | 16.29765 | 11076 ft | 324 kts | 220° |
| 2026-04-26 14:05 | 47.92083 | 16.27596 | 11391 ft | 344 kts | 220° |
| 2026-04-26 14:06 | 47.90160 | 16.25277 | 11782 ft | 359 kts | 220° |
| 2026-04-26 14:06 | 47.88231 | 16.22959 | 12602 ft | 361 kts | 220° |
| 2026-04-26 14:06 | 47.87889 | 16.22547 | 12657 ft | 364 kts | 220° |
| 2026-04-26 14:07 | 47.85916 | 16.20170 | 13048 ft | 371 kts | 220° |
| 2026-04-26 14:07 | 47.83922 | 16.17775 | 13512 ft | 368 kts | 220° |
| 2026-04-26 14:07 | 47.81936 | 16.15391 | 14083 ft | 372 kts | 220° |
| 2026-04-26 14:07 | 47.79903 | 16.12952 | 14782 ft | 376 kts | 220° |
| 2026-04-26 14:08 | 47.77841 | 16.10480 | 15416 ft | 381 kts | 220° |
| 2026-04-26 14:08 | 47.75758 | 16.07986 | 16082 ft | 385 kts | 220° |
| 2026-04-26 14:08 | 47.73688 | 16.05509 | 16701 ft | 388 kts | 220° |
| 2026-04-26 14:08 | 47.71556 | 16.02961 | 17325 ft | 392 kts | 220° |
| 2026-04-26 14:09 | 47.69432 | 16.00425 | 17921 ft | 396 kts | 220° |
| 2026-04-26 14:09 | 47.67271 | 15.97848 | 18503 ft | 399 kts | 220° |
| 2026-04-26 14:09 | 47.65810 | 15.96107 | 18891 ft | 401 kts | 220° |
| 2026-04-26 14:09 | 47.63634 | 15.93517 | 19442 ft | 405 kts | 220° |
| 2026-04-26 14:10 | 47.60672 | 15.89995 | 20173 ft | 409 kts | 220° |
| 2026-04-26 14:10 | 47.58450 | 15.87357 | 20688 ft | 413 kts | 220° |
| 2026-04-26 14:10 | 47.56181 | 15.84666 | 21203 ft | 416 kts | 220° |
| 2026-04-26 14:10 | 47.53925 | 15.81993 | 21688 ft | 419 kts | 220° |
| 2026-04-26 14:11 | 47.49336 | 15.76631 | 22654 ft | 426 kts | 218° |
| 2026-04-26 14:11 | 47.46848 | 15.74152 | 23115 ft | 430 kts | 213° |
| 2026-04-26 14:11 | 47.44192 | 15.72105 | 23556 ft | 435 kts | 205° |
| 2026-04-26 14:12 | 47.41339 | 15.70433 | 24016 ft | 438 kts | 203° |
| 2026-04-26 14:12 | 47.39437 | 15.69370 | 24288 ft | 440 kts | 203° |
| 2026-04-26 14:12 | 47.35599 | 15.67200 | 24830 ft | 444 kts | 203° |
| 2026-04-26 14:12 | 47.32726 | 15.65577 | 25219 ft | 447 kts | 203° |
| 2026-04-26 14:13 | 47.26865 | 15.62289 | 25977 ft | 452 kts | 203° |
| 2026-04-26 14:13 | 47.23908 | 15.60638 | 26334 ft | 455 kts | 203° |
| 2026-04-26 14:13 | 47.20974 | 15.59003 | 26682 ft | 457 kts | 203° |
| 2026-04-26 14:14 | 47.17989 | 15.57344 | 27016 ft | 460 kts | 203° |
| 2026-04-26 14:14 | 47.14957 | 15.55661 | 27350 ft | 462 kts | 203° |
| 2026-04-26 14:14 | 47.14413 | 15.55359 | 27408 ft | 462 kts | 203° |